Time;durP1;ratioP1;P1;durP2;ratioP2;P2;SDS_P1;SDS_P2;PMS_P1;PMS_P2;Temp;Humidity;BMP_temperature;BMP_pressure;BME280_temperature;BME280_humidity;BME280_pressure;Samples;Min_cycle;Max_cycle;Signal;HPM_P1;HPM_P2
2022/04/03 00:02:16;;;;;;;6.83;2.90;;;;;;;-1.82;69.87;100903.00;5002917;28;20200;-71
2022/04/03 00:04:43;;;;;;;4.77;2.70;;;;;;;-1.93;70.24;100909.50;5007455;28;20455;-71
2022/04/03 00:07:10;;;;;;;5.87;2.60;;;;;;;-2.01;70.65;100905.84;5005881;28;20483;-71
2022/04/03 00:09:36;;;;;;;3.87;2.50;;;;;;;-2.06;71.35;100907.41;4988418;28;20266;-71
2022/04/03 00:12:03;;;;;;;4.60;2.60;;;;;;;-2.17;71.62;100905.38;5005886;28;20203;-71
2022/04/03 00:14:29;;;;;;;3.77;2.37;;;;;;;-2.26;72.18;100904.25;5006469;28;20466;-71
2022/04/03 00:16:56;;;;;;;4.40;2.40;;;;;;;-2.33;72.72;100913.41;5012473;28;20472;-71
2022/04/03 00:19:23;;;;;;;5.93;2.60;;;;;;;-2.40;72.98;100911.50;5002615;28;20286;-71
2022/04/03 00:21:51;;;;;;;3.37;1.97;;;;;;;-2.44;74.39;100904.56;5009335;28;20983;-71
2022/04/03 00:24:18;;;;;;;3.13;2.30;;;;;;;-2.52;74.27;100907.72;5002158;28;21132;-71
2022/04/03 00:26:44;;;;;;;4.33;2.43;;;;;;;-2.60;74.62;100905.72;5000182;28;20501;-71
2022/04/03 00:29:11;;;;;;;4.10;2.57;;;;;;;-2.63;74.81;100918.44;4981032;28;20478;-71
2022/04/03 00:31:41;;;;;;;4.30;2.60;;;;;;;-2.70;75.29;100908.00;5003512;28;20465;-71
2022/04/03 00:34:07;;;;;;;3.70;2.63;;;;;;;-2.77;75.70;100910.31;5004650;28;20831;-71
2022/04/03 00:36:34;;;;;;;5.17;3.10;;;;;;;-2.81;76.34;100908.47;5000290;28;20479;-71
2022/04/03 00:39:02;;;;;;;8.07;2.83;;;;;;;-2.84;77.61;100903.28;5006391;28;20453;-71
2022/04/03 00:41:28;;;;;;;5.67;2.63;;;;;;;-2.90;77.23;100914.16;5004058;28;20446;-71
2022/04/03 00:43:55;;;;;;;5.53;2.30;;;;;;;-2.92;78.52;100909.00;5005874;28;21172;-71
2022/04/03 00:46:22;;;;;;;5.37;2.80;;;;;;;-2.96;77.93;100913.94;5003030;28;20481;-71
2022/04/03 00:48:49;;;;;;;4.87;2.40;;;;;;;-3.00;78.43;100918.06;4999950;28;20448;-71
2022/04/03 00:51:17;;;;;;;3.77;2.87;;;;;;;-3.07;78.50;100919.53;5003442;28;20983;-71
2022/04/03 00:53:44;;;;;;;4.17;2.67;;;;;;;-3.07;79.36;100922.09;5004271;28;20487;-71
2022/04/03 00:56:12;;;;;;;6.00;3.13;;;;;;;-3.14;79.30;100920.16;4991620;28;21099;-71
2022/04/03 00:58:40;;;;;;;3.60;2.50;;;;;;;-3.19;80.30;100914.03;5006478;28;20481;-71
2022/04/03 01:01:07;;;;;;;3.70;2.73;;;;;;;-3.28;80.17;100919.69;5001402;28;20455;-71
2022/04/03 01:03:33;;;;;;;5.47;2.60;;;;;;;-3.34;80.36;100914.38;5007097;28;20467;-71
2022/04/03 01:06:00;;;;;;;5.53;2.70;;;;;;;-3.36;81.22;100922.75;5005979;28;20471;-71
2022/04/03 01:08:27;;;;;;;4.27;2.70;;;;;;;-3.43;81.56;100917.47;5007758;28;20458;-74
2022/04/03 01:10:54;;;;;;;4.80;2.80;;;;;;;-3.46;82.08;100919.03;4999419;28;20469;-73
2022/04/03 01:13:22;;;;;;;3.77;2.67;;;;;;;-3.54;82.23;100918.75;5005060;28;20455;-74
2022/04/03 01:15:52;;;;;;;4.60;2.67;;;;;;;-3.53;84.16;100917.94;5013622;28;20547;-73
2022/04/03 01:18:19;;;;;;;4.67;2.70;;;;;;;-3.60;84.21;100918.53;5012269;28;20472;-74
2022/04/03 01:20:46;;;;;;;5.30;2.77;;;;;;;-3.68;83.41;100920.78;5009014;28;20464;-73
2022/04/03 01:23:13;;;;;;;4.27;2.60;;;;;;;-3.66;85.15;100918.31;5009655;28;20447;-73
2022/04/03 01:25:41;;;;;;;4.07;2.60;;;;;;;-3.70;85.42;100922.44;5002919;28;20522;-74
2022/04/03 01:28:08;;;;;;;4.20;2.80;;;;;;;-3.75;85.33;100918.84;5011745;28;20471;-74
2022/04/03 01:30:34;;;;;;;3.67;2.47;;;;;;;-3.67;87.98;100912.34;5014056;28;20469;-73
2022/04/03 01:33:01;;;;;;;3.83;2.57;;;;;;;-3.72;88.67;100913.88;5009221;28;20452;-73
2022/04/03 01:35:28;;;;;;;4.37;2.63;;;;;;;-3.76;89.32;100923.88;5011061;28;20463;-73
2022/04/03 01:37:55;;;;;;;3.30;2.47;;;;;;;-3.90;87.25;100920.84;5009137;28;20483;-73
2022/04/03 01:40:21;;;;;;;7.50;2.77;;;;;;;-3.78;90.66;100923.84;5008817;28;20466;-74
2022/04/03 01:42:50;;;;;;;3.93;2.53;;;;;;;-3.84;90.47;100929.56;5010874;28;20545;-73
2022/04/03 01:45:16;;;;;;;4.73;2.70;;;;;;;-3.96;89.10;100923.16;5018318;28;20959;-73
2022/04/03 01:47:43;;;;;;;3.30;2.57;;;;;;;-3.94;90.30;100926.63;5006144;28;20487;-73
2022/04/03 01:50:10;;;;;;;3.33;2.53;;;;;;;-3.91;91.78;100925.06;5008639;28;20463;-73
2022/04/03 01:52:36;;;;;;;5.77;3.10;;;;;;;-4.02;91.02;100926.34;5007342;28;20460;-73
2022/04/03 01:55:03;;;;;;;5.00;2.73;;;;;;;-4.07;91.01;100928.69;5017363;28;20447;-73
2022/04/03 01:57:31;;;;;;;4.63;2.40;;;;;;;-4.05;92.07;100931.31;5004141;28;20479;-73
2022/04/03 01:59:59;;;;;;;4.27;2.60;;;;;;;-4.12;91.24;100926.78;4998243;28;20820;-73
2022/04/03 02:02:25;;;;;;;5.00;2.53;;;;;;;-4.10;92.62;100922.63;5006282;28;20455;-73
2022/04/03 02:04:52;;;;;;;5.00;3.00;;;;;;;-4.15;92.46;100926.66;5008272;28;20490;-73
2022/04/03 02:07:18;;;;;;;4.27;2.40;;;;;;;-4.13;93.58;100922.50;4990098;28;20479;-74
2022/04/03 02:09:44;;;;;;;2.70;2.17;;;;;;;-4.03;96.39;100922.03;5008409;28;20475;-73
2022/04/03 02:12:11;;;;;;;3.17;2.57;;;;;;;-4.13;95.44;100927.59;5002946;28;20462;-73
2022/04/03 02:14:37;;;;;;;5.27;2.53;;;;;;;-4.14;95.74;100925.88;5008504;28;20458;-73
2022/04/03 02:17:05;;;;;;;4.77;2.70;;;;;;;-4.22;94.94;100925.56;5009762;28;20466;-73
2022/04/03 02:19:31;;;;;;;5.90;2.80;;;;;;;-4.18;96.42;100927.44;5005168;28;20479;-73
2022/04/03 02:21:58;;;;;;;3.43;2.40;;;;;;;-4.31;95.52;100930.31;5002967;28;20469;-73
2022/04/03 02:24:24;;;;;;;5.03;2.57;;;;;;;-4.28;96.46;100930.44;5009554;28;20463;-73
2022/04/03 02:26:51;;;;;;;3.63;2.40;;;;;;;-4.22;97.32;100928.09;5011873;28;20471;-73
2022/04/03 02:29:17;;;;;;;3.50;2.60;;;;;;;-4.44;95.03;100936.59;5011459;28;20471;-73
2022/04/03 02:31:44;;;;;;;4.77;2.53;;;;;;;-4.21;98.73;100945.13;5006193;28;20802;-73
2022/04/03 02:34:11;;;;;;;4.73;2.50;;;;;;;-4.33;98.62;100930.25;5009341;28;21074;-73
2022/04/03 02:36:40;;;;;;;4.23;2.23;;;;;;;-4.45;96.79;100943.38;5006385;28;20586;-73
2022/04/03 02:39:06;;;;;;;4.43;2.30;;;;;;;-4.35;98.97;100933.53;4990200;28;20472;-73
2022/04/03 02:41:33;;;;;;;2.97;2.27;;;;;;;-4.49;97.71;100938.94;5008565;28;20851;-73
2022/04/03 02:44:00;;;;;;;2.53;2.20;;;;;;;-4.54;96.63;100934.50;5000329;28;20543;-73
2022/04/03 02:46:26;;;;;;;3.93;2.60;;;;;;;-4.49;97.86;100935.53;5002214;28;20472;-73
2022/04/03 02:48:52;;;;;;;3.53;2.43;;;;;;;-4.57;98.13;100945.44;5004159;28;20459;-73
2022/04/03 02:51:20;;;;;;;4.07;2.87;;;;;;;-4.43;100.00;100938.34;5005573;28;20900;-73
2022/04/03 02:53:46;;;;;;;4.30;2.90;;;;;;;-4.49;100.00;100941.50;4999227;28;20455;-73
2022/04/03 02:56:13;;;;;;;3.13;2.43;;;;;;;-4.59;99.98;100945.38;5009392;28;20479;-73
2022/04/03 02:58:40;;;;;;;4.23;2.90;;;;;;;-4.49;100.00;100941.50;5008990;28;20537;-73
2022/04/03 03:01:06;;;;;;;4.07;2.37;;;;;;;-4.52;100.00;100937.97;4998794;28;20455;-73
2022/04/03 03:03:33;;;;;;;5.93;2.93;;;;;;;-4.60;100.00;100948.69;5008864;28;20466;-73
2022/04/03 03:05:59;;;;;;;2.57;2.30;;;;;;;-4.67;100.00;100950.94;5008895;28;21123;-73
2022/04/03 03:08:27;;;;;;;5.00;2.50;;;;;;;-4.68;100.00;100942.41;5006924;28;20455;-73
2022/04/03 03:10:53;;;;;;;4.13;2.77;;;;;;;-4.72;100.00;100943.13;5008476;28;20447;-73
2022/04/03 03:13:20;;;;;;;7.33;2.70;;;;;;;-4.79;99.15;100944.53;5008275;28;20459;-74
2022/04/03 03:15:47;;;;;;;5.00;2.70;;;;;;;-4.88;98.80;100946.72;5007837;28;20470;-73
2022/04/03 03:18:13;;;;;;;3.10;2.70;;;;;;;-4.74;100.00;100938.78;5003572;28;20483;-73
2022/04/03 03:20:40;;;;;;;8.57;2.80;;;;;;;-4.77;100.00;100944.59;5000082;28;20840;-73
2022/04/03 03:23:06;;;;;;;5.13;2.80;;;;;;;-4.91;99.50;100949.13;5011251;28;20458;-73
2022/04/03 03:25:34;;;;;;;6.50;2.73;;;;;;;-4.93;99.46;100948.19;5000571;28;20451;-73
2022/04/03 03:28:01;;;;;;;2.87;2.23;;;;;;;-4.75;100.00;100942.97;5008747;28;20475;-73
2022/04/03 03:30:28;;;;;;;3.30;2.23;;;;;;;-4.98;100.00;100949.66;5012409;28;20442;-73
2022/04/03 03:32:54;;;;;;;5.73;2.63;;;;;;;-5.04;100.00;100945.19;5005958;28;20451;-73
2022/04/03 03:35:21;;;;;;;3.97;2.73;;;;;;;-5.08;100.00;100945.00;5008879;28;20448;-73
2022/04/03 03:37:47;;;;;;;2.73;2.37;;;;;;;-5.00;100.00;100941.09;5002694;28;20476;-73
2022/04/03 03:40:14;;;;;;;4.57;2.90;;;;;;;-5.04;100.00;100940.09;5003999;28;20550;-73
2022/04/03 03:42:43;;;;;;;3.50;2.50;;;;;;;-5.03;100.00;100943.50;5004268;28;20439;-73
2022/04/03 03:45:10;;;;;;;3.23;2.40;;;;;;;-5.16;100.00;100943.00;5006435;28;20474;-73
2022/04/03 03:47:37;;;;;;;4.03;2.57;;;;;;;-5.35;100.00;100940.47;5003623;28;20480;-73
2022/04/03 03:50:08;;;;;;;4.50;2.43;;;;;;;-5.13;100.00;100944.81;5008383;28;20443;-73
2022/04/03 03:53:00;;;;;;;4.13;2.20;;;;;;;-5.18;100.00;100944.59;5001874;28;20470;-73
2022/04/03 03:55:27;;;;;;;3.47;2.50;;;;;;;-5.33;100.00;100952.47;4999391;28;20457;-72
2022/04/03 03:57:55;;;;;;;4.73;2.77;;;;;;;-5.39;100.00;100953.84;5034693;23;20505;-71
2022/04/03 04:00:22;;;;;;;4.13;2.60;;;;;;;-5.47;100.00;100958.63;5031557;28;20454;-71
2022/04/03 04:02:48;;;;;;;3.90;2.40;;;;;;;-5.48;100.00;100953.47;5027118;28;20457;-71
2022/04/03 04:05:15;;;;;;;4.67;2.23;;;;;;;-5.34;100.00;100952.38;5029056;28;20461;-71
2022/04/03 04:07:42;;;;;;;2.97;2.30;;;;;;;-5.27;100.00;100951.00;5029833;28;20473;-71
2022/04/03 04:10:11;;;;;;;4.07;2.77;;;;;;;-5.44;100.00;100951.09;5014061;28;20806;-71
2022/04/03 04:12:39;;;;;;;3.17;2.20;;;;;;;-5.46;100.00;100955.25;5021783;28;20454;-71
2022/04/03 04:15:07;;;;;;;3.50;2.17;;;;;;;-5.57;100.00;100959.88;5016540;28;20940;-71
2022/04/03 04:17:34;;;;;;;4.00;2.30;;;;;;;-5.55;100.00;100958.25;4989717;28;21171;-71
2022/04/03 04:20:01;;;;;;;4.80;2.60;;;;;;;-5.42;100.00;100954.56;5001392;28;20479;-71
2022/04/03 04:22:28;;;;;;;6.47;2.37;;;;;;;-5.45;100.00;100966.28;5013519;28;20459;-71
2022/04/03 04:24:54;;;;;;;4.07;2.67;;;;;;;-5.44;100.00;100965.50;5003782;28;20470;-71
2022/04/03 04:27:21;;;;;;;3.77;2.33;;;;;;;-5.60;100.00;100966.47;5008676;28;20476;-71
2022/04/03 04:29:47;;;;;;;3.83;2.40;;;;;;;-5.83;100.00;100973.94;5013497;28;20811;-72
2022/04/03 04:32:15;;;;;;;2.80;2.00;;;;;;;-5.71;100.00;100966.00;5010702;28;20458;-71
2022/04/03 04:34:41;;;;;;;3.90;2.70;;;;;;;-5.63;100.00;100969.75;5008449;28;20680;-71
2022/04/03 04:37:08;;;;;;;7.00;2.57;;;;;;;-5.72;100.00;100969.34;5021663;28;20962;-71
2022/04/03 04:39:34;;;;;;;4.37;2.57;;;;;;;-5.81;100.00;100974.00;5003546;28;20479;-71
2022/04/03 04:42:00;;;;;;;7.37;2.47;;;;;;;-5.74;100.00;100976.88;5013934;28;20900;-71
2022/04/03 04:44:28;;;;;;;3.27;2.47;;;;;;;-5.85;100.00;100979.75;5012835;28;20809;-71
2022/04/03 04:46:54;;;;;;;3.63;2.50;;;;;;;-5.82;100.00;100984.94;5019935;28;20490;-71
2022/04/03 04:49:22;;;;;;;3.20;2.40;;;;;;;-5.82;100.00;100978.22;5008540;28;20460;-71
2022/04/03 04:51:48;;;;;;;4.73;2.70;;;;;;;-5.71;100.00;100986.31;5009832;28;20459;-71
2022/04/03 04:54:15;;;;;;;3.13;2.30;;;;;;;-5.70;100.00;100980.44;5016948;28;20473;-71
2022/04/03 04:56:41;;;;;;;4.43;2.30;;;;;;;-5.65;100.00;100984.06;5005513;28;20478;-71
2022/04/03 04:59:08;;;;;;;3.27;2.40;;;;;;;-5.83;100.00;100993.38;5017285;28;20474;-71
2022/04/03 05:01:34;;;;;;;3.27;2.23;;;;;;;-5.65;100.00;100993.34;5008496;28;20451;-71
2022/04/03 05:04:00;;;;;;;3.57;2.40;;;;;;;-5.72;100.00;100994.75;5010876;28;20450;-71
2022/04/03 05:06:29;;;;;;;5.23;2.60;;;;;;;-5.80;100.00;100998.63;5013657;28;20455;-71
2022/04/03 05:08:55;;;;;;;4.33;2.60;;;;;;;-5.72;100.00;101003.25;5013410;28;20455;-71
2022/04/03 05:11:23;;;;;;;5.57;2.60;;;;;;;-5.56;100.00;101002.28;5017850;28;21017;-71
2022/04/03 05:13:50;;;;;;;4.07;2.70;;;;;;;-5.56;100.00;101003.91;5013060;28;20899;-71
2022/04/03 05:16:16;;;;;;;5.40;2.70;;;;;;;-5.44;100.00;101008.69;5019563;28;20456;-71
2022/04/03 05:18:43;;;;;;;4.10;2.27;;;;;;;-5.42;100.00;101007.09;5012286;28;20836;-71
2022/04/03 05:21:10;;;;;;;6.53;2.70;;;;;;;-5.11;100.00;101008.44;5015645;28;20958;-71
2022/04/03 05:23:38;;;;;;;5.47;2.47;;;;;;;-5.17;100.00;101014.13;5006308;28;20464;-71
2022/04/03 05:26:06;;;;;;;6.13;2.23;;;;;;;-5.33;100.00;101005.84;5005997;28;20455;-71
2022/04/03 05:28:32;;;;;;;5.73;2.73;;;;;;;-5.05;100.00;101013.78;5002235;28;20476;-71
2022/04/03 05:30:59;;;;;;;4.57;2.80;;;;;;;-5.16;100.00;101011.66;5017651;28;20452;-71
2022/04/03 05:33:25;;;;;;;4.93;2.20;;;;;;;-5.02;100.00;101014.78;5009307;28;20482;-71
2022/04/03 05:35:51;;;;;;;7.00;2.63;;;;;;;-5.03;100.00;101013.06;5015616;28;20461;-71
2022/04/03 05:38:18;;;;;;;6.47;2.90;;;;;;;-5.01;100.00;101020.78;5013454;28;20474;-71
2022/04/03 05:40:46;;;;;;;4.23;2.87;;;;;;;-5.03;100.00;101022.34;5006173;28;20936;-71
2022/04/03 05:43:12;;;;;;;5.50;2.90;;;;;;;-4.86;100.00;101023.09;5005099;28;20538;-71
2022/04/03 05:45:38;;;;;;;6.47;2.73;;;;;;;-4.83;100.00;101019.00;5017413;28;20458;-71
2022/04/03 05:48:06;;;;;;;4.77;2.97;;;;;;;-4.62;100.00;101028.34;5022320;28;20490;-71
2022/04/03 05:50:32;;;;;;;4.50;3.00;;;;;;;-4.68;100.00;101026.41;5008636;28;20947;-72
2022/04/03 05:52:59;;;;;;;5.43;3.17;;;;;;;-4.59;100.00;101031.91;5006530;28;20470;-71
2022/04/03 05:55:25;;;;;;;7.17;2.90;;;;;;;-4.39;100.00;101035.25;5017550;28;20959;-71
2022/04/03 05:57:54;;;;;;;5.20;2.87;;;;;;;-4.35;100.00;101038.78;5013582;28;20487;-71
2022/04/03 06:00:23;;;;;;;4.10;2.90;;;;;;;-4.14;100.00;101038.78;5013374;28;20532;-71
2022/04/03 06:02:51;;;;;;;8.67;2.80;;;;;;;-4.10;100.00;101040.66;5009879;28;20463;-72
2022/04/03 06:05:19;;;;;;;7.30;2.70;;;;;;;-3.96;100.00;101036.09;5007044;28;20482;-72
2022/04/03 06:07:46;;;;;;;5.03;2.97;;;;;;;-3.75;100.00;101046.25;5003103;28;20537;-71
2022/04/03 06:10:14;;;;;;;6.17;3.10;;;;;;;-3.60;100.00;101047.69;5010112;28;20448;-71
2022/04/03 06:12:54;;;;;;;3.60;2.73;;;;;;;-3.36;100.00;101043.50;5016930;28;20963;-71
2022/04/03 06:15:20;;;;;;;6.60;3.13;;;;;;;-3.01;100.00;101041.34;5009673;28;20551;-71
2022/04/03 06:17:48;;;;;;;5.77;2.77;;;;;;;-2.96;99.18;101046.63;5016563;28;20467;-72
2022/04/03 06:20:14;;;;;;;5.47;2.97;;;;;;;-2.76;97.10;101048.22;5009430;28;20534;-71
2022/04/03 06:22:40;;;;;;;3.50;2.53;;;;;;;-2.59;94.93;101056.44;5014964;28;20498;-72
2022/04/03 06:25:08;;;;;;;4.07;2.43;;;;;;;-2.41;92.96;101063.88;5006996;28;20688;-72
2022/04/03 06:27:34;;;;;;;3.57;2.47;;;;;;;-2.13;92.84;101062.19;5014257;28;20481;-71
2022/04/03 06:30:02;;;;;;;2.93;2.30;;;;;;;-1.88;92.51;101060.44;5013428;28;20460;-72
2022/04/03 06:32:29;;;;;;;3.03;2.30;;;;;;;-1.75;89.77;101065.13;5004826;28;20904;-71
2022/04/03 06:34:55;;;;;;;3.33;2.30;;;;;;;-1.68;87.44;101073.84;5004430;28;20478;-72
2022/04/03 06:37:22;;;;;;;5.13;2.47;;;;;;;-1.58;88.03;101071.63;5006773;28;20570;-72
2022/04/03 06:39:48;;;;;;;5.27;2.30;;;;;;;-1.45;87.46;101079.66;5004267;28;20498;-71
2022/04/03 06:42:15;;;;;;;3.33;1.90;;;;;;;-1.37;87.55;101083.34;5008408;28;20474;-71
2022/04/03 06:44:42;;;;;;;4.80;2.20;;;;;;;-1.21;89.02;101074.41;5022880;28;20442;-72
2022/04/03 06:47:10;;;;;;;2.97;2.30;;;;;;;-1.19;86.98;101083.00;5004711;28;20486;-72
2022/04/03 06:49:40;;;;;;;3.63;2.30;;;;;;;-1.15;84.34;101089.94;5000910;28;20196;-72
2022/04/03 06:52:07;;;;;;;4.30;3.10;;;;;;;-1.10;83.87;101092.63;5001687;28;20570;-72
2022/04/03 06:54:33;;;;;;;7.87;2.90;;;;;;;-1.05;83.36;101094.50;5006607;28;20739;-72
2022/04/03 06:56:59;;;;;;;4.00;2.43;;;;;;;-1.01;81.87;101101.44;5000789;28;20597;-72
2022/04/03 06:59:27;;;;;;;2.90;2.40;;;;;;;-0.94;81.73;101099.06;4998105;28;20225;-72
2022/04/03 07:01:54;;;;;;;3.27;2.10;;;;;;;-0.82;81.93;101097.69;5002447;28;20205;-71
2022/04/03 07:04:21;;;;;;;3.60;2.00;;;;;;;-0.71;82.37;101099.69;5006033;28;20205;-72
2022/04/03 07:06:48;;;;;;;4.63;2.17;;;;;;;-0.69;80.94;101098.91;5003704;28;20231;-72
2022/04/03 07:09:14;;;;;;;7.13;2.83;;;;;;;-0.72;79.54;101109.09;5007706;28;20192;-72
2022/04/03 07:11:41;;;;;;;3.77;2.30;;;;;;;-0.72;80.04;101106.53;5003874;28;20209;-72
2022/04/03 07:14:07;;;;;;;6.77;4.93;;;;;;;-0.71;80.43;101105.69;5006677;28;20204;-71
2022/04/03 07:16:34;;;;;;;4.97;3.40;;;;;;;-0.70;78.59;101109.09;5007585;28;20201;-72
2022/04/03 07:19:00;;;;;;;4.07;2.63;;;;;;;-0.72;77.69;101118.44;5012927;28;20258;-72
2022/04/03 07:21:28;;;;;;;3.63;2.20;;;;;;;-0.67;77.53;101120.31;5014576;28;20212;-72
2022/04/03 07:23:54;;;;;;;3.50;2.50;;;;;;;-0.54;78.12;101115.53;5005178;28;20211;-72
2022/04/03 07:26:21;;;;;;;4.27;2.33;;;;;;;-0.45;77.80;101120.91;4996483;28;20297;-72
2022/04/03 07:28:47;;;;;;;6.83;2.60;;;;;;;-0.31;77.86;101118.72;5004282;28;20203;-72
2022/04/03 07:31:14;;;;;;;2.67;2.00;;;;;;;-0.25;76.90;101124.84;4999775;28;20205;-72
2022/04/03 07:33:40;;;;;;;5.50;2.27;;;;;;;-0.11;77.19;101114.09;4999092;28;20203;-72
2022/04/03 07:36:06;;;;;;;3.00;2.17;;;;;;;0.05;77.74;101125.59;5006445;28;20215;-72
2022/04/03 07:38:34;;;;;;;7.57;2.70;;;;;;;0.14;77.35;101123.25;5004895;28;20224;-72
2022/04/03 07:41:00;;;;;;;5.60;2.80;;;;;;;0.22;76.71;101123.44;5006911;28;20302;-72
2022/04/03 07:43:27;;;;;;;4.63;3.83;;;;;;;0.43;78.45;101118.81;4997149;28;20201;-72
2022/04/03 07:45:54;;;;;;;5.33;3.40;;;;;;;0.40;74.96;101126.44;5008599;28;20756;-71
2022/04/03 07:48:21;;;;;;;4.70;3.77;;;;;;;0.50;74.87;101125.81;4999137;28;20471;-72
2022/04/03 07:50:47;;;;;;;3.13;2.50;;;;;;;0.62;75.07;101127.81;5002347;28;20236;-72
2022/04/03 07:53:13;;;;;;;3.00;2.27;;;;;;;0.76;74.39;101128.13;5001056;28;20759;-72
2022/04/03 07:55:41;;;;;;;3.77;2.20;;;;;;;0.91;73.77;101125.00;5003946;28;20201;-72
2022/04/03 07:58:07;;;;;;;5.23;2.47;;;;;;;0.94;73.92;101127.66;5005681;28;20243;-72
2022/04/03 08:00:34;;;;;;;3.67;2.70;;;;;;;1.08;74.55;101125.38;5004019;28;20215;-72
2022/04/03 08:03:00;;;;;;;3.40;2.60;;;;;;;1.12;73.95;101130.56;4998105;28;20211;-72
2022/04/03 08:05:27;;;;;;;4.23;2.80;;;;;;;1.23;72.98;101132.50;4998124;28;20210;-72
2022/04/03 08:07:55;;;;;;;5.67;3.43;;;;;;;1.21;72.50;101129.91;4995146;28;20663;-72
2022/04/03 08:10:22;;;;;;;4.63;3.27;;;;;;;1.29;72.51;101142.91;5001423;28;20199;-73
2022/04/03 08:12:51;;;;;;;4.47;2.33;;;;;;;1.38;71.84;101132.81;4998569;28;20241;-72
2022/04/03 08:15:19;;;;;;;5.93;2.60;;;;;;;1.56;72.89;101134.88;5003415;28;20200;-72
2022/04/03 08:17:45;;;;;;;4.30;2.40;;;;;;;1.61;69.69;101132.41;5007673;28;20748;-72
2022/04/03 08:20:16;;;;;;;3.33;2.23;;;;;;;1.87;70.99;101132.88;4999730;28;20227;-72
2022/04/03 08:22:43;;;;;;;3.33;2.33;;;;;;;1.98;69.30;101135.63;4998839;28;20566;-72
2022/04/03 08:25:11;;;;;;;2.93;2.00;;;;;;;2.02;67.74;101137.41;4999428;28;20205;-72
2022/04/03 08:27:42;;;;;;;4.50;2.27;;;;;;;2.14;65.48;101142.75;5002086;28;20226;-72
2022/04/03 08:30:13;;;;;;;4.83;2.50;;;;;;;2.16;65.65;101141.06;4998557;28;20212;-72
2022/04/03 08:32:40;;;;;;;5.63;2.30;;;;;;;2.21;63.29;101148.88;4997764;28;20282;-72
2022/04/03 08:35:07;;;;;;;2.90;2.13;;;;;;;2.18;61.34;101154.84;5002925;28;20208;-72
2022/04/03 08:37:33;;;;;;;3.53;2.67;;;;;;;2.24;60.81;101152.34;5000369;28;20570;-72
2022/04/03 08:40:00;;;;;;;6.03;2.63;;;;;;;2.33;60.19;101154.22;4996828;28;20262;-72
2022/04/03 08:42:27;;;;;;;2.90;2.10;;;;;;;2.38;59.60;101155.16;4995178;28;20208;-72
2022/04/03 08:44:54;;;;;;;6.67;2.50;;;;;;;2.48;59.82;101153.63;5004319;28;20219;-72
2022/04/03 08:47:23;;;;;;;3.73;2.40;;;;;;;2.43;57.48;101155.25;4996428;28;20225;-72
2022/04/03 08:49:49;;;;;;;3.10;2.13;;;;;;;2.36;56.47;101150.84;5014943;28;20192;-72
2022/04/03 08:52:15;;;;;;;3.30;2.20;;;;;;;2.54;57.02;101151.13;5002672;28;20208;-72
2022/04/03 08:54:42;;;;;;;3.50;2.10;;;;;;;2.56;56.63;101144.28;5009109;28;20800;-72
2022/04/03 08:57:09;;;;;;;3.17;2.10;;;;;;;2.65;56.19;101153.84;4999769;28;20233;-72
2022/04/03 08:59:37;;;;;;;3.33;1.83;;;;;;;2.59;55.72;101149.47;4997742;28;20300;-72
2022/04/03 09:02:04;;;;;;;3.23;2.17;;;;;;;2.72;55.28;101145.38;4998699;28;20766;-72
2022/04/03 09:04:32;;;;;;;4.13;2.20;;;;;;;2.91;55.23;101151.66;4999476;28;20212;-72
2022/04/03 09:06:59;;;;;;;4.07;2.27;;;;;;;2.99;56.00;101136.28;5002676;28;20451;-72
2022/04/03 09:09:27;;;;;;;5.77;3.53;;;;;;;3.03;55.23;101145.81;5000378;28;20211;-72
2022/04/03 09:12:14;;;;;;;3.07;2.30;;;;;;;3.09;54.88;101148.44;5005761;28;20200;-72
2022/04/03 09:14:48;;;;;;;8.03;2.70;;;;;;;3.12;55.63;101145.91;5002347;28;20200;-72
2022/04/03 09:17:32;;;;;;;6.67;2.83;;;;;;;3.31;55.25;101141.00;4998483;28;20227;-72
2022/04/03 09:20:03;;;;;;;6.97;3.17;;;;;;;3.25;54.31;101130.59;5003570;28;20231;-72
2022/04/03 09:22:30;;;;;;;4.63;2.30;;;;;;;3.31;53.71;101133.28;5002564;28;20708;-72
2022/04/03 09:24:56;;;;;;;5.20;2.60;;;;;;;3.26;53.02;101135.78;5005124;28;20882;-72
2022/04/03 09:27:24;;;;;;;4.23;2.90;;;;;;;3.32;51.27;101133.25;5008631;28;20240;-72
2022/04/03 09:30:01;;;;;;;4.90;2.90;;;;;;;3.57;51.75;101129.25;5005669;28;20211;-72
2022/04/03 09:32:28;;;;;;;2.77;2.27;;;;;;;3.63;49.77;101130.19;5009213;28;20231;-72
2022/04/03 09:34:57;;;;;;;5.17;2.43;;;;;;;3.78;49.68;101133.78;5006366;28;20190;-72
2022/04/03 09:37:25;;;;;;;2.57;1.97;;;;;;;3.84;45.15;101145.88;5009126;28;20286;-72
2022/04/03 09:39:51;;;;;;;2.07;1.70;;;;;;;3.54;41.46;101147.28;5006994;28;20732;-72
2022/04/03 09:42:18;;;;;;;2.87;1.23;;;;;;;3.44;41.35;101142.84;5009189;28;20794;-72
2022/04/03 09:44:46;;;;;;;1.37;1.17;;;;;;;3.45;40.18;101144.59;5004844;28;20217;-72
2022/04/03 09:47:21;;;;;;;4.70;1.23;;;;;;;3.29;39.49;101135.81;5003917;28;20225;-72
2022/04/03 09:49:54;;;;;;;1.90;1.30;;;;;;;3.29;39.93;101137.50;5002836;28;20673;-72
2022/04/03 09:52:36;;;;;;;2.53;1.40;;;;;;;3.18;38.79;101137.38;4999338;28;20713;-72
2022/04/03 09:55:07;;;;;;;1.67;1.10;;;;;;;3.23;40.44;101144.31;5001009;28;20727;-72
2022/04/03 09:57:33;;;;;;;2.27;1.27;;;;;;;3.20;38.38;101140.84;5013931;28;20239;-72
2022/04/03 10:00:00;;;;;;;1.50;1.30;;;;;;;3.19;39.09;101139.13;5010758;28;20213;-72
2022/04/03 10:02:26;;;;;;;1.60;1.33;;;;;;;3.12;39.27;101139.91;5000141;28;20204;-71
2022/04/03 10:04:53;;;;;;;1.60;1.10;;;;;;;3.07;38.45;101139.84;5009075;28;20292;-72
2022/04/03 10:07:20;;;;;;;2.07;1.30;;;;;;;3.21;37.48;101137.44;5004898;28;20260;-72
2022/04/03 10:09:49;;;;;;;2.20;1.30;;;;;;;3.46;39.41;101124.84;5001431;28;20212;-72
2022/04/03 10:12:18;;;;;;;1.73;1.00;;;;;;;4.06;41.33;101122.84;5002430;28;20205;-72
2022/04/03 10:14:45;;;;;;;2.63;1.33;;;;;;;4.28;40.58;101119.59;5003468;28;20205;-72
2022/04/03 10:17:11;;;;;;;2.63;1.50;;;;;;;4.25;40.12;101123.84;5011136;28;20235;-72
2022/04/03 10:19:38;;;;;;;1.60;1.10;;;;;;;4.21;40.81;101125.56;5008540;28;20205;-72
2022/04/03 10:22:09;;;;;;;2.70;1.37;;;;;;;4.02;39.23;101126.25;5008876;28;20211;-72
2022/04/03 10:24:37;;;;;;;3.70;2.10;;;;;;;3.82;40.86;101115.72;5008158;28;20208;-72
2022/04/03 10:27:11;;;;;;;2.57;1.37;;;;;;;3.91;42.04;101126.16;4999340;28;20625;-72
2022/04/03 10:29:38;;;;;;;2.70;1.70;;;;;;;3.81;43.65;101107.13;4998239;28;20202;-72
2022/04/03 10:32:06;;;;;;;3.03;1.50;;;;;;;3.75;42.95;101107.09;5002754;28;20205;-72
2022/04/03 10:34:45;;;;;;;2.70;1.50;;;;;;;3.79;41.86;101099.38;5009111;28;20312;-72
2022/04/03 10:37:27;;;;;;;2.20;1.60;;;;;;;4.03;41.46;101099.56;5010602;28;20228;-72
2022/04/03 10:39:55;;;;;;;1.93;1.60;;;;;;;4.28;41.63;101098.94;5008819;28;20197;-72
2022/04/03 10:42:26;;;;;;;4.30;2.00;;;;;;;4.34;41.52;101092.94;5005369;28;20843;-72
2022/04/03 10:45:20;;;;;;;3.53;1.57;;;;;;;4.50;40.97;101088.75;5011461;28;20196;-72
2022/04/03 10:47:49;;;;;;;2.40;1.30;;;;;;;4.80;40.97;101088.06;4998574;28;20217;-72
2022/04/03 10:50:22;;;;;;;2.30;1.50;;;;;;;4.70;40.14;101092.31;5004725;28;20228;-72
2022/04/03 10:52:57;;;;;;;2.57;1.90;;;;;;;4.44;40.49;101093.88;5009073;28;20740;-72
2022/04/03 10:55:26;;;;;;;1.90;1.63;;;;;;;4.49;41.46;101094.78;5003378;28;20196;-73
2022/04/03 10:57:55;;;;;;;3.77;1.80;;;;;;;4.49;41.30;101089.59;5006965;28;20232;-72
2022/04/03 11:00:41;;;;;;;1.67;1.40;;;;;;;4.65;41.99;101090.56;5009683;28;20335;-72
2022/04/03 11:03:37;;;;;;;1.60;1.50;;;;;;;4.68;41.25;101080.25;5002268;28;20224;-72
2022/04/03 11:06:23;;;;;;;1.40;1.30;;;;;;;4.68;40.76;101090.59;4993805;28;20623;-72
2022/04/03 11:09:13;;;;;;;2.57;1.40;;;;;;;4.91;40.60;101081.22;5006262;28;20839;-72
2022/04/03 11:11:45;;;;;;;2.17;1.83;;;;;;;4.88;39.89;101088.09;5006544;28;20206;-73
2022/04/03 11:14:52;;;;;;;3.37;2.43;;;;;;;4.81;39.73;101084.63;5001533;28;20196;-72
2022/04/03 11:17:20;;;;;;;2.63;1.80;;;;;;;4.72;40.37;101082.84;5008282;28;20612;-72
2022/04/03 11:19:48;;;;;;;2.93;1.80;;;;;;;5.04;40.34;101068.34;5000718;28;20205;-73
2022/04/03 11:22:17;;;;;;;3.50;1.90;;;;;;;5.11;39.69;101073.53;5001164;28;20221;-72
2022/04/03 11:24:43;;;;;;;1.63;1.37;;;;;;;4.72;39.30;101085.44;5002399;28;20785;-72
2022/04/03 11:27:12;;;;;;;1.80;1.40;;;;;;;4.61;40.11;101074.19;5001364;28;20232;-72
2022/04/03 11:29:40;;;;;;;1.53;1.40;;;;;;;4.76;40.66;101064.78;5002214;28;20204;-72
2022/04/03 11:32:08;;;;;;;1.40;1.30;;;;;;;4.99;40.84;101065.72;4993959;28;20216;-72